Aviation Digital Data Service (ADDS)

Output produced by METARs form (1204 UTC 01 October 2016)
found at http://aviationweather.gov/adds/metars/
 
KMPV 011125Z 0112/0212 VRB03KT P6SM -SHRA OVC035 
     FM011700 13004KT P6SM VCSH OVC050 
     FM020800 VRB03KT P6SM VCSH OVC030